Guernsey Island, United Kingdom
Current Conditions -  °F | °C
As of 9:50 AM on Saturday 01 Nov 2014 (Local Time) from EGJB Reporting Station
Few Clouds Few Clouds  
Wind Chill: 57°   Ceiling: Unl
Heat Index: 57°   Visibility: 6mi
Dew Point: 55°   Wind: 10mph
Humidity: 94%   Direction: 240°WSW
Pressure: 30.09"   Gusts: NA
Location:  49.43°N, 2.6°W
Report Text: EGJB 010850Z 24009KT 9999 FEW012 14/13 Q1019
Loading
Personal Weather Stations






























Interactive Weather Map New forecast layout! Learn more

10-Day Weather Forecast

Advertisements
Track Severe Weather on mobile